Southeast, Michigan
Current Conditions -  °F | °C
As of 10:53 AM on Thursday 30 Oct 2014 (Local Time) from KFNT Reporting Station
Overcast Overcast  
Wind Chill: 40°   Ceiling: 3600
Heat Index: 43°   Visibility: 10mi
Dew Point: 37°   Wind: 5mph
Humidity: 80%   Direction: 230°SW
Pressure: 30.15"   Gusts: NA
Location:  42.972°N, 83.6629°W
Report Text: KFNT 301453Z 23004KT 10SM OVC036 06/03 A3015 RMK AO2 SLP213 T00610028 51009
Loading
Personal Weather Stations






























Interactive Weather Map
Tropical Storm Tracking
New forecast layout! Learn more

10-Day Weather Forecast

Advertisements
Track Severe Weather on mobile